Siping, China
Current Conditions -  °F | °C
As of 5:00 AM on Wednesday 28 Jan 2015 (Local Time) from ZYCC Reporting Station
Clear Clear  
Wind Chill: -22°   Ceiling: Unl
Heat Index: -8°   Visibility: 4mi
Dew Point: -17°   Wind: 7mph
Humidity: 65%   Direction: 220°SW
Pressure: 30.5"   Gusts: NA
Location:  43.17°N, 124.33°E
Report Text: ZYCC 272100Z 22003MPS 6000 NSC M22/M27 Q1033 NOSIG
Loading
Personal Weather Stations






























Interactive Weather Map New forecast layout! Learn more

10-Day Weather Forecast

Advertisements
Track Severe Weather on mobile